Time;durP1;ratioP1;P1;durP2;ratioP2;P2;SDS_P1;SDS_P2;PMS_P1;PMS_P2;Temp;Humidity;BMP_temperature;BMP_pressure;BME280_temperature;BME280_humidity;BME280_pressure;Samples;Min_cycle;Max_cycle;Signal;HPM_P1;HPM_P2
2022/05/09 00:01:54;;;;;;;9.43;3.58;;;;;;;9.80;69.34;100576.59;5031682;28;20422;-69
2022/05/09 00:04:21;;;;;;;6.47;3.70;;;;;;;9.76;69.41;100579.38;5032235;28;20517;-67
2022/05/09 00:06:48;;;;;;;8.30;4.60;;;;;;;9.67;69.98;100583.16;5031393;28;20041;-67
2022/05/09 00:09:14;;;;;;;6.50;4.18;;;;;;;9.64;70.07;100584.13;5031323;28;20032;-68
2022/05/09 00:11:40;;;;;;;5.80;4.00;;;;;;;9.67;69.84;100583.16;5031909;28;20049;-67
2022/05/09 00:14:05;;;;;;;7.22;3.95;;;;;;;9.64;70.44;100586.75;5032526;28;20061;-66
2022/05/09 00:16:34;;;;;;;8.15;4.25;;;;;;;9.53;70.73;100578.34;5030793;28;20034;-65
2022/05/09 00:19:03;;;;;;;8.55;3.72;;;;;;;9.50;70.88;100578.47;5031859;28;20037;-67
2022/05/09 00:21:29;;;;;;;6.75;3.45;;;;;;;9.51;70.27;100580.16;5031752;28;20124;-67
2022/05/09 00:23:56;;;;;;;6.57;4.05;;;;;;;9.53;69.90;100567.81;5031679;28;20064;-67
2022/05/09 00:26:22;;;;;;;7.07;3.90;;;;;;;9.50;70.56;100570.56;5031165;28;20033;-66
2022/05/09 00:28:47;;;;;;;7.55;3.72;;;;;;;9.49;70.39;100566.19;5031886;28;20041;-66
2022/05/09 00:31:13;;;;;;;6.47;3.83;;;;;;;9.46;70.73;100567.16;5031488;28;20541;-66
2022/05/09 00:33:39;;;;;;;7.25;4.57;;;;;;;9.42;70.71;100569.94;5031645;28;20469;-68
2022/05/09 00:36:05;;;;;;;9.02;4.53;;;;;;;9.38;70.96;100565.69;5031205;28;20037;-67
2022/05/09 00:38:30;;;;;;;6.40;3.78;;;;;;;9.36;70.63;100564.88;5031018;28;20040;-69
2022/05/09 00:43:40;;;;;;;10.45;4.03;;;;;;;9.25;70.94;100549.41;5031146;28;20083;-68
2022/05/09 00:46:06;;;;;;;8.40;3.72;;;;;;;9.24;71.20;100553.81;5031525;28;20040;-67
2022/05/09 00:48:32;;;;;;;6.05;3.83;;;;;;;9.20;71.19;100557.44;5016082;28;20403;-68
2022/05/09 00:50:58;;;;;;;5.45;3.70;;;;;;;9.21;71.45;100559.19;5032218;28;20049;-67
2022/05/09 00:53:25;;;;;;;6.65;4.60;;;;;;;9.16;71.59;100549.72;5031287;28;20375;-67
2022/05/09 00:55:55;;;;;;;5.35;3.17;;;;;;;9.16;71.14;100547.94;5013395;28;20410;-68
2022/05/09 00:58:26;;;;;;;13.30;4.70;;;;;;;9.06;72.21;100551.78;5032432;28;20495;-67
2022/05/09 01:00:54;;;;;;;15.65;3.60;;;;;;;9.07;71.69;100542.09;5016734;28;20510;-66
2022/05/09 01:03:38;;;;;;;10.88;5.30;;;;;;;9.08;71.35;100544.69;5032497;28;20040;-67
2022/05/09 01:06:03;;;;;;;8.93;4.75;;;;;;;9.08;71.32;100547.31;5031979;28;20904;-67
2022/05/09 01:08:32;;;;;;;11.48;4.03;;;;;;;8.99;72.01;100551.09;5032523;28;20034;-67
2022/05/09 01:10:58;;;;;;;9.45;3.70;;;;;;;8.96;72.27;100553.81;5033928;28;20041;-67
2022/05/09 01:13:30;;;;;;;6.53;3.72;;;;;;;9.00;71.61;100546.69;5030463;28;20034;-66
2022/05/09 01:15:58;;;;;;;7.32;3.95;;;;;;;8.90;72.58;100546.09;5030585;28;20124;-66
2022/05/09 01:18:23;;;;;;;9.25;4.20;;;;;;;8.91;72.36;100547.84;5030675;28;20399;-67
2022/05/09 01:20:49;;;;;;;8.52;3.58;;;;;;;8.93;72.11;100546.00;5029818;28;20038;-67
2022/05/09 01:23:14;;;;;;;8.98;3.63;;;;;;;8.99;71.78;100548.44;5030378;28;20029;-67
2022/05/09 01:25:40;;;;;;;9.82;4.20;;;;;;;8.97;72.08;100552.03;5030895;28;20029;-68
2022/05/09 01:28:06;;;;;;;10.55;4.32;;;;;;;8.95;71.48;100551.22;5029810;28;20514;-67
2022/05/09 01:30:40;;;;;;;7.75;3.97;;;;;;;8.92;72.21;100546.91;5017599;28;20060;-67
2022/05/09 01:33:12;;;;;;;5.28;3.33;;;;;;;8.91;71.54;100544.31;5030716;28;20112;-67
2022/05/09 01:35:54;;;;;;;9.90;4.45;;;;;;;8.86;71.88;100547.13;5030456;28;20424;-67
2022/05/09 01:38:30;;;;;;;7.85;3.92;;;;;;;8.79;72.85;100543.78;5049771;28;20025;-68
2022/05/09 01:40:55;;;;;;;9.02;4.85;;;;;;;8.70;72.98;100541.44;5048341;28;20102;-67
2022/05/09 01:43:51;;;;;;;8.65;4.15;;;;;;;8.59;73.09;100538.28;5032369;28;20116;-67
2022/05/09 01:46:21;;;;;;;9.77;4.13;;;;;;;8.63;73.50;100539.03;5028987;28;20662;-67
2022/05/09 01:51:31;;;;;;;10.90;4.68;;;;;;;8.65;72.65;100539.84;5044821;28;20075;-67
2022/05/09 01:53:57;;;;;;;8.70;4.32;;;;;;;8.62;73.32;100532.91;5030117;28;20037;-67
2022/05/09 01:56:26;;;;;;;9.77;3.92;;;;;;;8.60;73.18;100535.59;5028936;28;20124;-67
2022/05/09 01:58:51;;;;;;;9.68;4.28;;;;;;;8.62;73.13;100542.59;5012361;28;20057;-67
2022/05/09 02:01:18;;;;;;;6.80;3.58;;;;;;;8.58;72.68;100540.00;5029817;28;20065;-68
2022/05/09 02:03:47;;;;;;;7.55;4.25;;;;;;;8.59;73.30;100546.16;5029806;28;20095;-67
2022/05/09 02:06:14;;;;;;;6.70;3.97;;;;;;;8.57;72.82;100543.56;5029246;28;20040;-68
2022/05/09 02:08:40;;;;;;;7.45;3.88;;;;;;;8.55;73.39;100553.25;5030269;28;20124;-67
2022/05/09 02:11:05;;;;;;;8.27;4.38;;;;;;;8.47;73.73;100554.41;5029509;28;20041;-67
2022/05/09 02:13:31;;;;;;;8.68;4.18;;;;;;;8.33;74.08;100552.97;5011950;28;20445;-67
2022/05/09 02:15:57;;;;;;;8.30;4.25;;;;;;;8.36;74.10;100552.00;5030195;28;20044;-67
2022/05/09 02:18:22;;;;;;;11.60;4.60;;;;;;;8.37;74.17;100549.34;5031167;28;20041;-66
2022/05/09 02:20:48;;;;;;;10.73;4.57;;;;;;;8.35;73.71;100547.69;5017091;28;20037;-66
2022/05/09 02:23:14;;;;;;;8.18;3.58;;;;;;;8.32;74.39;100546.00;5031947;28;20110;-68
2022/05/09 02:25:41;;;;;;;10.60;5.20;;;;;;;8.28;74.29;100543.50;5014821;28;20219;-67
2022/05/09 02:28:07;;;;;;;11.13;4.75;;;;;;;8.28;74.22;100543.50;5031272;28;20037;-66
2022/05/09 02:30:33;;;;;;;7.25;4.28;;;;;;;8.22;74.91;100541.00;5032208;28;20505;-66
2022/05/09 02:32:58;;;;;;;10.55;4.50;;;;;;;8.21;74.47;100544.56;5031424;28;20048;-67
2022/05/09 02:35:24;;;;;;;7.70;5.05;;;;;;;8.09;75.13;100546.59;5030916;28;20029;-66
2022/05/09 02:37:52;;;;;;;12.57;3.88;;;;;;;8.07;74.73;100550.16;5030077;28;20091;-66
2022/05/09 02:40:17;;;;;;;9.63;4.78;;;;;;;8.05;75.26;100544.09;5030078;28;20033;-67
2022/05/09 02:42:44;;;;;;;7.82;4.10;;;;;;;8.09;74.99;100546.59;5031383;28;20048;-67
2022/05/09 02:45:10;;;;;;;10.50;4.00;;;;;;;8.12;74.92;100546.53;5031626;28;20060;-67
2022/05/09 02:47:36;;;;;;;7.68;3.47;;;;;;;8.16;75.03;100547.31;5030361;28;20026;-67
2022/05/09 02:50:02;;;;;;;8.13;3.83;;;;;;;8.15;74.51;100548.22;5032225;28;20040;-68
2022/05/09 02:52:28;;;;;;;11.20;5.32;;;;;;;8.08;75.02;100542.25;5031974;28;20044;-67
2022/05/09 02:54:53;;;;;;;6.40;4.60;;;;;;;7.99;75.02;100541.66;5031814;28;20034;-68
2022/05/09 02:57:19;;;;;;;9.55;4.32;;;;;;;7.99;75.02;100539.03;5033658;28;20047;-67
2022/05/09 02:59:44;;;;;;;8.30;4.68;;;;;;;7.99;75.74;100541.66;5032883;28;20060;-66
2022/05/09 03:02:10;;;;;;;5.60;3.80;;;;;;;8.00;75.30;100541.63;5033510;28;20034;-66
2022/05/09 03:04:41;;;;;;;8.30;4.03;;;;;;;8.05;75.41;100533.59;5033676;28;20034;-66
2022/05/09 03:07:07;;;;;;;13.70;5.22;;;;;;;8.02;74.57;100531.06;5031619;28;20549;-68
2022/05/09 03:09:33;;;;;;;10.43;4.10;;;;;;;7.94;75.58;100532.13;5031103;28;20388;-67
2022/05/09 03:11:58;;;;;;;7.57;4.72;;;;;;;7.95;75.33;100533.00;5049424;28;20041;-67
2022/05/09 03:14:24;;;;;;;8.75;5.10;;;;;;;7.94;75.73;100529.50;5051153;28;20155;-67
2022/05/09 03:16:49;;;;;;;10.88;5.63;;;;;;;7.92;75.66;100531.28;5050053;28;20490;-68
2022/05/09 03:19:14;;;;;;;7.60;4.40;;;;;;;7.91;76.33;100526.94;5050469;28;20099;-67
2022/05/09 03:21:40;;;;;;;8.02;5.25;;;;;;;7.91;75.71;100523.47;5050813;28;20029;-67
2022/05/09 03:24:06;;;;;;;19.17;5.45;;;;;;;7.87;76.11;100525.31;5051215;28;20135;-67
2022/05/09 03:26:31;;;;;;;8.55;5.07;;;;;;;7.90;76.04;100522.63;5048223;28;20104;-67
2022/05/09 03:28:57;;;;;;;7.93;4.30;;;;;;;7.87;75.84;100519.19;5030201;28;20038;-67
2022/05/09 03:31:22;;;;;;;9.13;5.55;;;;;;;7.89;75.76;100522.66;5030875;28;20038;-67
2022/05/09 03:33:48;;;;;;;10.32;4.55;;;;;;;7.89;76.00;100520.03;5030902;28;20034;-67
2022/05/09 03:36:14;;;;;;;10.95;5.38;;;;;;;7.92;76.15;100509.44;5029731;28;20033;-68
2022/05/09 03:38:39;;;;;;;9.98;5.35;;;;;;;7.95;75.74;100514.63;5030630;28;20037;-67
2022/05/09 03:41:04;;;;;;;9.60;5.22;;;;;;;7.92;75.93;100509.44;5030319;28;20794;-67
2022/05/09 03:43:30;;;;;;;10.55;5.38;;;;;;;7.84;75.81;100514.88;5029909;28;20037;-67
2022/05/09 03:45:57;;;;;;;8.30;4.88;;;;;;;7.80;76.28;100520.25;5033642;28;20057;-66
2022/05/09 03:48:22;;;;;;;12.80;4.93;;;;;;;7.82;76.82;100516.69;5033315;28;20026;-67
2022/05/09 03:50:47;;;;;;;9.10;5.35;;;;;;;7.79;76.19;100513.28;5033734;28;20533;-68
2022/05/09 03:53:13;;;;;;;11.13;5.38;;;;;;;7.77;76.32;100513.31;5033917;28;20594;-67
2022/05/09 03:55:38;;;;;;;12.20;6.55;;;;;;;7.74;76.79;100516.03;5032515;28;20041;-69
2022/05/09 03:58:04;;;;;;;9.50;5.00;;;;;;;7.75;76.83;100515.13;5033305;28;20037;-66
2022/05/09 04:00:33;;;;;;;12.40;5.65;;;;;;;7.74;76.78;100509.03;5034660;28;20032;-67
2022/05/09 04:02:59;;;;;;;6.57;4.15;;;;;;;7.77;76.55;100505.44;5033780;28;20044;-68
2022/05/09 04:05:30;;;;;;;6.70;4.93;;;;;;;7.78;76.32;100511.56;5026544;28;20080;-66
2022/05/09 04:07:57;;;;;;;11.55;5.78;;;;;;;7.79;76.18;100506.28;5033495;28;20041;-68
2022/05/09 04:10:28;;;;;;;9.93;5.57;;;;;;;7.77;76.81;100502.81;5033844;28;20048;-67
2022/05/09 04:12:53;;;;;;;13.30;4.72;;;;;;;7.84;76.81;100508.78;5034135;28;20117;-67
2022/05/09 04:18:04;;;;;;;10.15;6.32;;;;;;;7.90;76.51;100511.22;5031034;28;20107;-69
2022/05/09 04:20:30;;;;;;;11.82;5.75;;;;;;;7.90;75.38;100509.50;5031655;28;20029;-68
2022/05/09 04:23:00;;;;;;;13.52;6.35;;;;;;;7.85;75.73;100511.38;5032068;28;20041;-67
2022/05/09 04:25:26;;;;;;;9.63;4.53;;;;;;;7.82;76.44;100514.06;5031801;28;20089;-70
2022/05/09 04:27:53;;;;;;;15.82;6.85;;;;;;;7.83;76.54;100513.19;5031270;28;20041;-69
2022/05/09 04:30:18;;;;;;;11.70;5.00;;;;;;;7.94;75.97;100510.25;5031975;28;20125;-68
2022/05/09 04:32:44;;;;;;;11.18;6.38;;;;;;;8.03;76.10;100509.16;5031927;28;20105;-67
2022/05/09 04:35:14;;;;;;;10.48;4.82;;;;;;;8.07;75.37;100510.78;5032344;28;20486;-69
2022/05/09 04:37:43;;;;;;;7.60;4.68;;;;;;;8.10;74.91;100513.34;5031244;28;20033;-68
2022/05/09 04:40:10;;;;;;;15.25;6.75;;;;;;;8.13;74.83;100523.75;5031956;28;20030;-69
2022/05/09 04:42:35;;;;;;;10.55;5.85;;;;;;;8.15;75.02;100516.72;5031873;28;20091;-69
2022/05/09 04:45:01;;;;;;;7.18;5.15;;;;;;;8.16;74.95;100515.78;5032703;28;20037;-68
2022/05/09 04:47:27;;;;;;;9.15;5.13;;;;;;;8.18;75.90;100522.72;5033918;28;20120;-70
2022/05/09 04:49:52;;;;;;;6.78;5.47;;;;;;;8.20;75.81;100519.22;5033272;28;20045;-69
2022/05/09 04:52:18;;;;;;;5.97;4.30;;;;;;;8.24;75.91;100519.06;5031426;28;20106;-69
2022/05/09 04:54:43;;;;;;;6.60;4.57;;;;;;;8.31;75.41;100525.88;5031366;28;20045;-68
2022/05/09 04:57:08;;;;;;;7.55;5.22;;;;;;;8.40;75.17;100516.06;5031135;28;20061;-67
2022/05/09 04:59:33;;;;;;;12.80;5.03;;;;;;;8.43;74.57;100518.59;5031512;28;20128;-68
2022/05/09 05:02:00;;;;;;;8.13;4.53;;;;;;;8.50;74.88;100509.63;5031705;28;20566;-67
2022/05/09 05:04:25;;;;;;;8.00;4.30;;;;;;;8.63;75.59;100508.34;5031319;28;20215;-68
2022/05/09 05:06:51;;;;;;;10.65;5.28;;;;;;;8.77;73.95;100513.19;5033160;28;20056;-67
2022/05/09 05:09:16;;;;;;;8.45;6.13;;;;;;;8.81;73.89;100504.28;5031277;28;20045;-68
2022/05/09 05:11:41;;;;;;;7.82;4.22;;;;;;;8.92;73.69;100504.84;5031395;28;20463;-67
2022/05/09 05:14:07;;;;;;;9.43;4.72;;;;;;;9.02;73.24;100515.94;5030970;28;20033;-68
2022/05/09 05:19:16;;;;;;;10.63;4.70;;;;;;;9.26;72.83;100510.81;5050232;28;20052;-68
2022/05/09 05:21:42;;;;;;;8.25;5.03;;;;;;;9.41;73.13;100513.81;5033309;28;20421;-67
2022/05/09 05:24:08;;;;;;;7.40;4.80;;;;;;;9.52;72.23;100513.44;5050769;28;20074;-68
2022/05/09 05:26:34;;;;;;;7.70;5.30;;;;;;;9.63;72.41;100515.72;5050059;28;20033;-69
2022/05/09 05:28:59;;;;;;;15.00;5.03;;;;;;;9.76;72.13;100516.19;5050179;28;20033;-68
2022/05/09 05:31:24;;;;;;;7.75;5.03;;;;;;;9.86;72.07;100512.31;5050559;28;20115;-70
2022/05/09 05:33:50;;;;;;;12.48;5.55;;;;;;;9.96;71.88;100511.06;5032262;28;20091;-69
2022/05/09 05:36:16;;;;;;;7.70;5.40;;;;;;;10.08;72.04;100510.63;5031769;28;20104;-68
2022/05/09 05:38:43;;;;;;;8.80;5.35;;;;;;;10.25;71.78;100510.03;5051176;28;20029;-70
2022/05/09 05:41:09;;;;;;;12.35;6.13;;;;;;;10.40;71.36;100513.91;5035414;28;20044;-70
2022/05/09 05:43:35;;;;;;;10.68;5.35;;;;;;;10.54;70.86;100513.41;5033149;28;20562;-67
2022/05/09 05:46:00;;;;;;;11.57;5.38;;;;;;;10.70;69.96;100511.91;5035031;28;20113;-68
2022/05/09 05:48:25;;;;;;;18.08;6.68;;;;;;;10.85;69.17;100509.59;5035711;28;20091;-68
2022/05/09 05:50:52;;;;;;;9.98;6.00;;;;;;;11.03;68.37;100508.03;5034059;28;20042;-68
2022/05/09 05:53:18;;;;;;;11.63;6.00;;;;;;;11.12;68.27;100508.53;5033855;28;20029;-68
2022/05/09 05:55:44;;;;;;;11.20;4.68;;;;;;;11.33;67.69;100513.88;5032405;28;20577;-68
2022/05/09 05:58:09;;;;;;;8.73;5.10;;;;;;;11.47;66.15;100511.53;5031742;28;20037;-69
2022/05/09 06:00:36;;;;;;;10.18;5.28;;;;;;;11.65;65.96;100512.53;5031420;28;20418;-68
2022/05/09 06:03:02;;;;;;;14.13;5.95;;;;;;;11.78;66.21;100510.22;5031007;28;20084;-68
2022/05/09 06:05:28;;;;;;;13.80;5.45;;;;;;;11.92;65.41;100514.97;5031185;28;20463;-68
2022/05/09 06:07:55;;;;;;;13.30;6.22;;;;;;;12.10;64.53;100523.88;5029618;28;20064;-67
2022/05/09 06:10:22;;;;;;;14.50;5.38;;;;;;;12.31;64.09;100522.06;5031102;28;20029;-68
2022/05/09 06:12:48;;;;;;;25.02;7.93;;;;;;;12.48;63.85;100519.53;5035555;28;20051;-68
2022/05/09 06:15:32;;;;;;;9.80;6.03;;;;;;;12.71;62.27;100515.81;5042760;28;20060;-69
2022/05/09 06:18:00;;;;;;;15.25;7.10;;;;;;;12.99;61.19;100519.81;5038882;28;20040;-69
2022/05/09 06:20:27;;;;;;;19.23;6.40;;;;;;;13.16;60.76;100521.66;5035985;28;20041;-68
2022/05/09 06:22:54;;;;;;;21.73;6.93;;;;;;;13.32;60.03;100525.31;5032672;28;20033;-69
2022/05/09 06:25:21;;;;;;;12.25;8.20;;;;;;;13.48;59.51;100520.97;5031392;28;20037;-68
2022/05/09 06:27:47;;;;;;;10.65;6.05;;;;;;;13.69;58.86;100518.19;5030447;28;20033;-68
2022/05/09 06:30:16;;;;;;;11.15;6.90;;;;;;;13.87;58.29;100524.34;5030650;28;20033;-68
2022/05/09 06:32:42;;;;;;;10.32;6.10;;;;;;;13.92;57.89;100520.53;5030908;28;20044;-68
2022/05/09 06:35:11;;;;;;;23.40;7.38;;;;;;;14.14;57.46;100520.25;5029966;28;20037;-68
2022/05/09 06:37:38;;;;;;;12.55;6.65;;;;;;;14.29;56.94;100521.25;5029314;28;20509;-69
2022/05/09 06:40:05;;;;;;;11.93;5.80;;;;;;;14.49;56.42;100520.19;5030224;28;20033;-70
2022/05/09 06:42:30;;;;;;;12.02;7.18;;;;;;;14.71;55.75;100519.91;5029914;28;20029;-68
2022/05/09 06:44:57;;;;;;;12.15;6.03;;;;;;;14.89;55.01;100519.84;5029605;28;20056;-69
2022/05/09 06:47:22;;;;;;;13.00;5.78;;;;;;;15.07;55.05;100512.66;5028932;28;20032;-68
2022/05/09 06:49:48;;;;;;;11.93;5.55;;;;;;;15.31;54.80;100507.75;5029188;28;20030;-67
2022/05/09 06:52:13;;;;;;;16.58;5.63;;;;;;;15.58;53.66;100514.13;5029408;28;20459;-69
2022/05/09 06:54:38;;;;;;;14.30;7.07;;;;;;;15.71;53.37;100508.13;5030326;28;20041;-68
2022/05/09 06:57:05;;;;;;;20.90;7.03;;;;;;;15.82;52.79;100506.53;5031791;28;20061;-67
2022/05/09 06:59:31;;;;;;;11.95;5.45;;;;;;;15.97;52.57;100504.75;5029850;28;20029;-68
2022/05/09 07:01:57;;;;;;;11.70;5.13;;;;;;;16.15;52.59;100501.97;5030071;28;20041;-68
2022/05/09 07:04:23;;;;;;;18.48;6.25;;;;;;;16.24;51.41;100501.38;5030247;28;20034;-68
2022/05/09 07:06:48;;;;;;;14.45;7.28;;;;;;;16.28;51.82;100498.44;5029022;28;20033;-69
2022/05/09 07:09:15;;;;;;;10.77;6.60;;;;;;;16.32;51.66;100496.47;5029861;28;20050;-68
2022/05/09 07:11:41;;;;;;;11.88;6.72;;;;;;;16.55;51.57;100497.69;5029810;28;20037;-67
2022/05/09 07:14:07;;;;;;;9.32;5.93;;;;;;;16.77;50.90;100491.84;5029494;28;20033;-69
2022/05/09 07:16:33;;;;;;;15.70;6.18;;;;;;;16.92;50.85;100493.56;5028864;28;20398;-68
2022/05/09 07:18:59;;;;;;;13.55;6.13;;;;;;;17.14;49.93;100495.69;5029100;28;20036;-69
2022/05/09 07:21:25;;;;;;;10.20;6.25;;;;;;;17.27;49.35;100502.88;5033601;28;20483;-67
2022/05/09 07:23:51;;;;;;;11.38;4.72;;;;;;;17.39;49.69;100494.06;5032191;28;20047;-66
2022/05/09 07:26:16;;;;;;;9.43;5.07;;;;;;;17.69;49.42;100490.31;5032787;28;20029;-67
2022/05/09 07:28:42;;;;;;;12.13;5.43;;;;;;;17.92;48.57;100491.47;5032646;28;20562;-68
2022/05/09 07:31:08;;;;;;;10.30;5.03;;;;;;;18.20;48.01;100488.56;5033413;28;20475;-68
2022/05/09 07:33:34;;;;;;;11.95;4.53;;;;;;;18.62;47.07;100491.84;5032947;28;20047;-69
2022/05/09 07:35:59;;;;;;;9.50;5.25;;;;;;;19.07;45.96;100493.97;5032321;28;20121;-68
2022/05/09 07:38:25;;;;;;;19.50;6.68;;;;;;;19.24;45.61;100490.06;5031298;28;20057;-67
2022/05/09 07:40:51;;;;;;;14.50;6.22;;;;;;;19.48;44.57;100493.59;5032779;28;20029;-67
2022/05/09 07:43:23;;;;;;;7.95;4.35;;;;;;;19.82;44.98;100488.38;5031662;28;20802;-65
2022/05/09 07:45:51;;;;;;;14.60;5.65;;;;;;;20.38;43.27;100491.16;5031010;28;20080;-68
2022/05/09 07:48:19;;;;;;;24.60;7.57;;;;;;;20.79;42.46;100481.63;5031676;28;20045;-67
2022/05/09 07:50:45;;;;;;;13.82;5.38;;;;;;;20.97;42.14;100475.78;5032386;28;20034;-67
2022/05/09 07:53:13;;;;;;;10.88;5.78;;;;;;;21.10;41.55;100479.16;5032552;28;20033;-69
2022/05/09 07:55:42;;;;;;;8.02;5.00;;;;;;;21.54;41.05;100481.84;5032244;28;20040;-67
2022/05/09 07:58:09;;;;;;;7.70;4.68;;;;;;;21.75;40.17;100481.84;5031602;28;20061;-67
2022/05/09 08:00:35;;;;;;;7.38;4.72;;;;;;;21.73;40.83;100484.63;5032215;28;20029;-68
2022/05/09 08:03:01;;;;;;;10.05;4.93;;;;;;;22.03;40.39;100483.03;5031930;28;20040;-68
2022/05/09 08:05:26;;;;;;;8.48;4.68;;;;;;;22.41;39.50;100478.84;5032324;28;20045;-68
2022/05/09 08:07:52;;;;;;;8.63;5.13;;;;;;;22.79;38.34;100483.53;5051108;28;20037;-67
2022/05/09 08:10:18;;;;;;;7.28;5.15;;;;;;;22.88;37.97;100484.53;5053302;28;20074;-67
2022/05/09 08:12:44;;;;;;;9.95;4.90;;;;;;;23.06;38.09;100482.91;5054168;28;20124;-68
2022/05/09 08:15:12;;;;;;;14.75;6.95;;;;;;;23.32;37.43;100485.06;5053295;28;20052;-69
2022/05/09 08:17:38;;;;;;;10.27;5.43;;;;;;;23.41;37.17;100486.06;5052847;28;20075;-67
2022/05/09 08:20:05;;;;;;;8.57;5.43;;;;;;;23.38;37.34;100491.72;5053365;28;20045;-68
2022/05/09 08:22:31;;;;;;;12.73;6.10;;;;;;;23.35;37.28;100484.78;5053401;28;20399;-68
2022/05/09 08:25:00;;;;;;;14.85;5.85;;;;;;;22.92;38.36;100489.50;5053900;28;20039;-67
2022/05/09 08:27:25;;;;;;;13.63;6.30;;;;;;;23.09;38.44;100479.94;5053521;28;20033;-68
2022/05/09 08:29:54;;;;;;;14.18;5.97;;;;;;;22.89;38.64;100476.34;5053730;28;20094;-67
2022/05/09 08:32:19;;;;;;;14.77;6.88;;;;;;;22.65;38.95;100473.16;5053247;28;20465;-67
2022/05/09 08:34:45;;;;;;;7.57;4.72;;;;;;;22.53;39.34;100472.41;5053784;28;20044;-68
2022/05/09 08:37:11;;;;;;;15.32;5.90;;;;;;;22.50;39.51;100478.91;5052807;28;20049;-68
2022/05/09 08:39:36;;;;;;;13.68;6.45;;;;;;;22.47;39.31;100470.25;5053861;28;20112;-68
2022/05/09 08:42:07;;;;;;;12.95;6.82;;;;;;;22.41;39.66;100466.28;5053499;28;20032;-65
2022/05/09 08:45:07;;;;;;;11.13;5.63;;;;;;;22.50;39.61;100467.31;5055866;28;20036;-68
2022/05/09 08:47:49;;;;;;;9.57;4.95;;;;;;;22.68;39.85;100472.88;5055489;28;20025;-67
2022/05/09 08:50:48;;;;;;;20.90;6.53;;;;;;;22.97;39.42;100472.09;5058989;28;20113;-69
2022/05/09 08:53:23;;;;;;;10.48;6.15;;;;;;;23.00;38.98;100467.31;5036392;28;20384;-67
2022/05/09 08:55:51;;;;;;;11.65;5.50;;;;;;;23.15;38.87;100471.31;5025394;28;20595;-69
2022/05/09 08:58:37;;;;;;;12.57;5.65;;;;;;;23.13;39.23;100472.44;5037573;28;20041;-67
2022/05/09 09:01:09;;;;;;;10.10;6.18;;;;;;;23.27;38.93;100471.19;5047720;28;20083;-67
2022/05/09 09:03:39;;;;;;;12.02;5.28;;;;;;;23.39;38.61;100466.53;5059212;28;20118;-66
2022/05/09 09:06:36;;;;;;;10.77;4.85;;;;;;;23.54;38.26;100459.72;5054751;28;20045;-67
2022/05/09 09:09:26;;;;;;;21.58;6.03;;;;;;;23.92;38.14;100457.97;5041953;28;20033;-68
2022/05/09 09:12:16;;;;;;;13.75;5.85;;;;;;;23.81;37.94;100461.69;5072299;28;20485;-68
2022/05/09 09:15:02;;;;;;;10.10;5.55;;;;;;;23.76;37.97;100463.97;5071714;28;20056;-69
2022/05/09 09:18:01;;;;;;;11.50;5.32;;;;;;;24.43;36.99;100462.91;5072482;28;20059;-69
2022/05/09 09:20:42;;;;;;;8.70;5.55;;;;;;;24.95;35.53;100459.66;5071778;28;20052;-69
2022/05/09 09:23:32;;;;;;;33.30;12.30;;;;;;;25.39;35.19;100462.50;5070815;28;20032;-68
2022/05/09 09:26:25;;;;;;;13.88;6.57;;;;;;;26.08;34.08;100458.16;5070196;28;20102;-70
2022/05/09 09:29:06;;;;;;;19.83;6.57;;;;;;;26.33;33.26;100455.59;5071229;28;20028;-69
2022/05/09 09:31:36;;;;;;;13.82;5.88;;;;;;;26.93;32.33;100460.09;5071917;28;20035;-69
2022/05/09 09:34:29;;;;;;;7.70;4.68;;;;;;;27.74;31.25;100458.47;5070067;28;20039;-68
2022/05/09 09:37:05;;;;;;;6.22;4.68;;;;;;;28.49;30.01;100455.50;5053648;28;20520;-69
2022/05/09 09:39:31;;;;;;;9.32;6.13;;;;;;;28.92;28.53;100445.13;5053747;28;20040;-67
2022/05/09 09:41:56;;;;;;;10.38;5.93;;;;;;;29.04;28.36;100445.53;5050249;28;20037;-70
2022/05/09 09:44:25;;;;;;;10.95;5.80;;;;;;;29.39;28.15;100440.53;5052879;28;20040;-69
2022/05/09 09:47:10;;;;;;;15.70;5.68;;;;;;;29.81;28.15;100433.78;5050519;28;20167;-69
2022/05/09 09:49:39;;;;;;;13.63;6.80;;;;;;;29.96;27.49;100431.91;5050917;28;20029;-68
2022/05/09 09:52:24;;;;;;;12.20;5.80;;;;;;;30.26;27.69;100435.50;5050468;28;20040;-69
2022/05/09 09:54:56;;;;;;;11.35;6.43;;;;;;;29.68;27.84;100439.81;5050392;28;20128;-69
2022/05/09 09:57:28;;;;;;;13.50;6.10;;;;;;;29.92;27.07;100433.31;5049596;28;20502;-69
2022/05/09 09:59:54;;;;;;;10.82;6.35;;;;;;;30.02;27.45;100439.31;5050113;28;20037;-69
2022/05/09 10:02:29;;;;;;;15.07;6.13;;;;;;;30.32;27.23;100433.91;5050836;28;20037;-67
2022/05/09 10:04:57;;;;;;;13.23;5.95;;;;;;;30.59;26.66;100430.50;5050748;28;20159;-69
2022/05/09 10:07:33;;;;;;;10.25;5.53;;;;;;;30.95;26.24;100423.41;5050422;28;20071;-67
2022/05/09 10:10:17;;;;;;;10.77;5.57;;;;;;;31.04;26.02;100411.34;5050713;28;20029;-67
2022/05/09 10:12:48;;;;;;;17.23;6.35;;;;;;;31.14;25.95;100420.03;5051413;28;20157;-67
2022/05/09 10:15:26;;;;;;;8.20;5.32;;;;;;;31.09;26.17;100413.50;5051633;28;20032;-67
2022/05/09 10:17:52;;;;;;;21.98;5.80;;;;;;;30.81;26.61;100419.66;5049980;28;20222;-67
2022/05/09 10:20:23;;;;;;;12.38;5.30;;;;;;;31.01;26.21;100411.72;5050875;28;20430;-67
2022/05/09 10:25:36;;;;;;;10.80;5.88;;;;;;;30.40;27.01;100414.78;5050905;28;20039;-67
2022/05/09 10:28:13;;;;;;;9.43;6.55;;;;;;;29.69;27.88;100411.63;5049953;28;20067;-68
2022/05/09 10:30:42;;;;;;;13.02;6.80;;;;;;;29.60;28.15;100404.56;5050211;28;20060;-68
2022/05/09 10:33:13;;;;;;;11.00;6.10;;;;;;;29.69;28.05;100403.47;5050346;28;20434;-68
2022/05/09 10:35:49;;;;;;;15.38;7.57;;;;;;;29.89;28.01;100398.34;5050956;28;20110;-68
2022/05/09 10:38:24;;;;;;;11.13;5.72;;;;;;;30.10;28.12;100394.84;5048713;28;20120;-69
2022/05/09 10:41:04;;;;;;;6.28;5.63;;;;;;;30.30;27.54;100397.88;5049754;28;20044;-68
2022/05/09 10:43:34;;;;;;;12.38;5.07;;;;;;;29.73;27.84;100394.78;5030278;28;20034;-68
2022/05/09 10:46:09;;;;;;;16.30;6.32;;;;;;;30.11;27.79;100391.13;5029411;28;20509;-67
2022/05/09 10:48:49;;;;;;;11.38;5.75;;;;;;;29.77;28.31;100388.97;5029342;28;20068;-68
2022/05/09 10:51:18;;;;;;;8.23;5.00;;;;;;;29.23;28.75;100387.22;5029363;28;20502;-69
2022/05/09 10:53:59;;;;;;;9.55;5.35;;;;;;;29.08;29.83;100382.56;5033344;28;20041;-67
2022/05/09 10:56:29;;;;;;;12.63;5.22;;;;;;;28.44;30.10;100390.03;5035695;28;20124;-68
2022/05/09 10:59:01;;;;;;;8.15;5.05;;;;;;;27.84;31.11;100386.03;5037786;28;20044;-69
2022/05/09 11:01:50;;;;;;;7.95;5.25;;;;;;;27.26;31.88;100381.66;5056034;28;20129;-69
2022/05/09 11:04:16;;;;;;;7.68;4.88;;;;;;;27.18;32.07;100377.94;5055731;28;20434;-67
2022/05/09 11:07:03;;;;;;;6.38;4.70;;;;;;;26.99;32.44;100378.22;5054789;28;20051;-68
2022/05/09 11:09:53;;;;;;;10.77;7.43;;;;;;;26.72;32.38;100365.84;5055048;28;20037;-69
2022/05/09 11:12:32;;;;;;;9.45;5.68;;;;;;;26.45;33.57;100375.88;5037578;28;20132;-68
2022/05/09 11:15:00;;;;;;;14.20;5.75;;;;;;;26.34;33.53;100366.22;5055926;28;20375;-68
2022/05/09 11:17:48;;;;;;;10.02;5.25;;;;;;;26.11;33.67;100363.28;5055873;28;20037;-69
2022/05/09 11:20:37;;;;;;;9.18;6.65;;;;;;;25.73;34.66;100364.53;5055682;28;20510;-68
2022/05/09 11:23:37;;;;;;;9.48;5.65;;;;;;;25.70;34.80;100365.72;5055520;28;20406;-67
2022/05/09 11:26:17;;;;;;;9.55;6.22;;;;;;;25.49;35.10;100366.06;5037066;28;20405;-67
2022/05/09 11:29:35;;;;;;;9.02;6.07;;;;;;;25.44;35.20;100362.16;5055517;28;20066;-68
2022/05/09 11:32:09;;;;;;;8.77;5.60;;;;;;;25.48;34.89;100361.69;5043474;28;20037;-68
2022/05/09 11:34:46;;;;;;;8.85;6.28;;;;;;;25.44;34.89;100363.00;5055478;28;20122;-68
2022/05/09 11:37:19;;;;;;;9.10;5.50;;;;;;;25.39;35.06;100359.94;5054775;28;20094;-69
2022/05/09 11:40:03;;;;;;;11.75;6.22;;;;;;;25.41;35.43;100354.38;5055264;28;20410;-68
2022/05/09 11:46:11;;;;;;;10.98;7.07;;;;;;;25.43;35.46;100342.41;5055704;28;20101;-66
2022/05/09 11:49:14;;;;;;;12.82;6.05;;;;;;;25.06;35.85;100338.06;4999657;28;20540;-66
2022/05/09 11:51:44;;;;;;;9.07;6.07;;;;;;;25.05;36.13;100333.63;5035445;28;20116;-67
2022/05/09 11:54:15;;;;;;;11.52;5.90;;;;;;;25.12;35.89;100335.72;5017755;28;20469;-67